sensor_id;sensor_type;location;lat;lon;timestamp;P1;durP1;ratioP1;P2;durP2;ratioP2
62798;SDS011;48842;51.046;13.796;2023-01-01T00:01:25;39.03;;;19.40;;
62798;SDS011;48842;51.046;13.796;2023-01-01T00:03:52;32.00;;;23.00;;
62798;SDS011;48842;51.046;13.796;2023-01-01T00:06:18;28.33;;;19.47;;
62798;SDS011;48842;51.046;13.796;2023-01-01T00:08:44;16.07;;;11.30;;
62798;SDS011;48842;51.046;13.796;2023-01-01T00:11:09;25.30;;;17.30;;
62798;SDS011;48842;51.046;13.796;2023-01-01T00:13:35;24.53;;;11.80;;
62798;SDS011;48842;51.046;13.796;2023-01-01T00:16:07;10.40;;;7.33;;
62798;SDS011;48842;51.046;13.796;2023-01-01T00:18:37;31.47;;;25.53;;
62798;SDS011;48842;51.046;13.796;2023-01-01T00:21:08;12.63;;;7.37;;
62798;SDS011;48842;51.046;13.796;2023-01-01T00:23:35;10.93;;;8.00;;
62798;SDS011;48842;51.046;13.796;2023-01-01T00:26:07;7.10;;;6.03;;
62798;SDS011;48842;51.046;13.796;2023-01-01T00:28:34;5.00;;;4.50;;
62798;SDS011;48842;51.046;13.796;2023-01-01T00:30:59;6.23;;;5.00;;
62798;SDS011;48842;51.046;13.796;2023-01-01T00:33:24;4.73;;;4.33;;
62798;SDS011;48842;51.046;13.796;2023-01-01T00:35:50;7.83;;;4.37;;
62798;SDS011;48842;51.046;13.796;2023-01-01T00:38:15;6.20;;;4.43;;
62798;SDS011;48842;51.046;13.796;2023-01-01T00:40:40;6.10;;;3.90;;
62798;SDS011;48842;51.046;13.796;2023-01-01T00:43:05;11.90;;;8.07;;
62798;SDS011;48842;51.046;13.796;2023-01-01T00:45:30;7.33;;;5.63;;
62798;SDS011;48842;51.046;13.796;2023-01-01T00:47:56;7.00;;;5.70;;
62798;SDS011;48842;51.046;13.796;2023-01-01T00:50:21;9.47;;;7.43;;
62798;SDS011;48842;51.046;13.796;2023-01-01T00:52:47;6.40;;;5.67;;
62798;SDS011;48842;51.046;13.796;2023-01-01T00:55:13;6.03;;;5.40;;
62798;SDS011;48842;51.046;13.796;2023-01-01T00:57:39;3.80;;;3.50;;
62798;SDS011;48842;51.046;13.796;2023-01-01T01:00:04;5.67;;;5.10;;
62798;SDS011;48842;51.046;13.796;2023-01-01T01:02:30;6.30;;;5.33;;
62798;SDS011;48842;51.046;13.796;2023-01-01T01:04:55;7.63;;;5.50;;
62798;SDS011;48842;51.046;13.796;2023-01-01T01:07:21;7.23;;;5.93;;
62798;SDS011;48842;51.046;13.796;2023-01-01T01:09:46;9.53;;;5.13;;
62798;SDS011;48842;51.046;13.796;2023-01-01T01:12:11;5.17;;;3.93;;
62798;SDS011;48842;51.046;13.796;2023-01-01T01:14:36;4.30;;;3.90;;
62798;SDS011;48842;51.046;13.796;2023-01-01T01:17:02;3.63;;;3.30;;
62798;SDS011;48842;51.046;13.796;2023-01-01T01:19:27;5.10;;;3.90;;
62798;SDS011;48842;51.046;13.796;2023-01-01T01:21:52;4.10;;;3.80;;
62798;SDS011;48842;51.046;13.796;2023-01-01T01:24:17;4.80;;;4.27;;
62798;SDS011;48842;51.046;13.796;2023-01-01T01:26:42;4.73;;;4.30;;
62798;SDS011;48842;51.046;13.796;2023-01-01T01:29:08;4.63;;;3.57;;
62798;SDS011;48842;51.046;13.796;2023-01-01T01:31:33;5.10;;;4.00;;
62798;SDS011;48842;51.046;13.796;2023-01-01T01:33:59;4.90;;;4.50;;
62798;SDS011;48842;51.046;13.796;2023-01-01T01:36:25;11.57;;;6.37;;
62798;SDS011;48842;51.046;13.796;2023-01-01T01:38:51;5.13;;;4.70;;
62798;SDS011;48842;51.046;13.796;2023-01-01T01:41:18;8.40;;;5.33;;
62798;SDS011;48842;51.046;13.796;2023-01-01T01:43:58;4.83;;;4.07;;
62798;SDS011;48842;51.046;13.796;2023-01-01T01:46:28;5.37;;;4.87;;
62798;SDS011;48842;51.046;13.796;2023-01-01T01:49:12;4.23;;;3.93;;
62798;SDS011;48842;51.046;13.796;2023-01-01T01:51:39;4.80;;;4.40;;
62798;SDS011;48842;51.046;13.796;2023-01-01T01:54:08;5.10;;;4.40;;
62798;SDS011;48842;51.046;13.796;2023-01-01T01:56:38;5.23;;;4.40;;
62798;SDS011;48842;51.046;13.796;2023-01-01T01:59:08;7.47;;;4.70;;
62798;SDS011;48842;51.046;13.796;2023-01-01T02:01:34;3.60;;;3.30;;
62798;SDS011;48842;51.046;13.796;2023-01-01T02:04:00;7.73;;;3.80;;
62798;SDS011;48842;51.046;13.796;2023-01-01T02:06:27;3.30;;;3.00;;
62798;SDS011;48842;51.046;13.796;2023-01-01T02:08:54;4.13;;;3.10;;
62798;SDS011;48842;51.046;13.796;2023-01-01T02:11:21;3.90;;;3.23;;
62798;SDS011;48842;51.046;13.796;2023-01-01T02:13:46;7.60;;;3.37;;
62798;SDS011;48842;51.046;13.796;2023-01-01T02:18:55;4.17;;;3.00;;
62798;SDS011;48842;51.046;13.796;2023-01-01T02:21:32;3.67;;;2.90;;
62798;SDS011;48842;51.046;13.796;2023-01-01T02:23:59;3.30;;;3.00;;
62798;SDS011;48842;51.046;13.796;2023-01-01T02:26:41;7.40;;;3.03;;
62798;SDS011;48842;51.046;13.796;2023-01-01T02:29:27;3.50;;;2.90;;
62798;SDS011;48842;51.046;13.796;2023-01-01T02:34:39;2.43;;;2.23;;
62798;SDS011;48842;51.046;13.796;2023-01-01T02:37:09;5.47;;;2.30;;
62798;SDS011;48842;51.046;13.796;2023-01-01T02:39:38;3.37;;;3.10;;
62798;SDS011;48842;51.046;13.796;2023-01-01T02:42:10;5.17;;;3.20;;
62798;SDS011;48842;51.046;13.796;2023-01-01T02:44:37;2.90;;;2.50;;
62798;SDS011;48842;51.046;13.796;2023-01-01T02:47:07;3.90;;;2.43;;
62798;SDS011;48842;51.046;13.796;2023-01-01T02:49:36;2.23;;;2.13;;
62798;SDS011;48842;51.046;13.796;2023-01-01T02:52:10;4.13;;;2.23;;
62798;SDS011;48842;51.046;13.796;2023-01-01T02:55:00;4.53;;;3.37;;
62798;SDS011;48842;51.046;13.796;2023-01-01T02:57:35;3.63;;;2.50;;
62798;SDS011;48842;51.046;13.796;2023-01-01T03:00:07;4.93;;;2.07;;
62798;SDS011;48842;51.046;13.796;2023-01-01T03:03:06;2.70;;;2.13;;
62798;SDS011;48842;51.046;13.796;2023-01-01T03:05:47;3.80;;;2.20;;
62798;SDS011;48842;51.046;13.796;2023-01-01T03:11:20;6.70;;;2.50;;
62798;SDS011;48842;51.046;13.796;2023-01-01T03:16:39;2.50;;;2.10;;
62798;SDS011;48842;51.046;13.796;2023-01-01T03:19:10;1.93;;;1.77;;
62798;SDS011;48842;51.046;13.796;2023-01-01T03:27:30;4.00;;;1.80;;
62798;SDS011;48842;51.046;13.796;2023-01-01T03:30:03;1.70;;;1.60;;
62798;SDS011;48842;51.046;13.796;2023-01-01T03:32:39;6.37;;;2.23;;
62798;SDS011;48842;51.046;13.796;2023-01-01T03:35:29;6.20;;;2.20;;
62798;SDS011;48842;51.046;13.796;2023-01-01T03:38:12;8.10;;;2.10;;
62798;SDS011;48842;51.046;13.796;2023-01-01T03:40:43;2.67;;;1.77;;
62798;SDS011;48842;51.046;13.796;2023-01-01T03:43:13;8.03;;;2.00;;
62798;SDS011;48842;51.046;13.796;2023-01-01T03:45:46;3.10;;;2.20;;
62798;SDS011;48842;51.046;13.796;2023-01-01T03:48:14;3.57;;;2.00;;
62798;SDS011;48842;51.046;13.796;2023-01-01T03:53:32;3.43;;;2.03;;
62798;SDS011;48842;51.046;13.796;2023-01-01T03:58:53;5.33;;;2.30;;
62798;SDS011;48842;51.046;13.796;2023-01-01T04:01:46;5.53;;;2.87;;
62798;SDS011;48842;51.046;13.796;2023-01-01T04:04:15;3.30;;;2.00;;
62798;SDS011;48842;51.046;13.796;2023-01-01T04:06:41;8.13;;;2.33;;
62798;SDS011;48842;51.046;13.796;2023-01-01T04:09:11;12.50;;;2.40;;
62798;SDS011;48842;51.046;13.796;2023-01-01T04:11:42;8.27;;;2.07;;
62798;SDS011;48842;51.046;13.796;2023-01-01T04:14:35;11.77;;;2.50;;
62798;SDS011;48842;51.046;13.796;2023-01-01T04:17:04;4.70;;;2.50;;
62798;SDS011;48842;51.046;13.796;2023-01-01T04:19:31;3.47;;;2.33;;
62798;SDS011;48842;51.046;13.796;2023-01-01T04:21:56;4.60;;;2.53;;
62798;SDS011;48842;51.046;13.796;2023-01-01T04:24:22;3.87;;;2.00;;
62798;SDS011;48842;51.046;13.796;2023-01-01T04:26:48;4.73;;;2.37;;
62798;SDS011;48842;51.046;13.796;2023-01-01T04:29:14;8.97;;;2.70;;
62798;SDS011;48842;51.046;13.796;2023-01-01T04:31:39;10.20;;;2.70;;
62798;SDS011;48842;51.046;13.796;2023-01-01T04:34:05;11.63;;;2.87;;
62798;SDS011;48842;51.046;13.796;2023-01-01T04:36:30;7.30;;;2.37;;
62798;SDS011;48842;51.046;13.796;2023-01-01T04:38:55;3.70;;;2.47;;
62798;SDS011;48842;51.046;13.796;2023-01-01T04:41:20;6.87;;;2.07;;
62798;SDS011;48842;51.046;13.796;2023-01-01T04:43:46;9.03;;;2.47;;
62798;SDS011;48842;51.046;13.796;2023-01-01T04:46:16;9.30;;;2.63;;
62798;SDS011;48842;51.046;13.796;2023-01-01T04:48:43;6.83;;;2.40;;
62798;SDS011;48842;51.046;13.796;2023-01-01T04:51:09;4.70;;;2.73;;
62798;SDS011;48842;51.046;13.796;2023-01-01T04:53:36;9.37;;;2.63;;
62798;SDS011;48842;51.046;13.796;2023-01-01T04:56:03;14.60;;;3.20;;
62798;SDS011;48842;51.046;13.796;2023-01-01T04:58:30;5.07;;;2.80;;
62798;SDS011;48842;51.046;13.796;2023-01-01T05:00:56;8.87;;;3.10;;
62798;SDS011;48842;51.046;13.796;2023-01-01T05:03:21;6.60;;;2.83;;
62798;SDS011;48842;51.046;13.796;2023-01-01T05:05:47;16.10;;;2.97;;
62798;SDS011;48842;51.046;13.796;2023-01-01T05:08:14;10.93;;;2.50;;
62798;SDS011;48842;51.046;13.796;2023-01-01T05:10:39;7.87;;;3.00;;
62798;SDS011;48842;51.046;13.796;2023-01-01T05:13:07;4.97;;;2.20;;
62798;SDS011;48842;51.046;13.796;2023-01-01T05:15:36;5.27;;;2.03;;
62798;SDS011;48842;51.046;13.796;2023-01-01T05:18:01;11.33;;;3.23;;
62798;SDS011;48842;51.046;13.796;2023-01-01T05:20:27;6.10;;;2.23;;
62798;SDS011;48842;51.046;13.796;2023-01-01T05:22:52;7.87;;;2.23;;
62798;SDS011;48842;51.046;13.796;2023-01-01T05:25:17;4.33;;;2.60;;
62798;SDS011;48842;51.046;13.796;2023-01-01T05:27:42;6.50;;;2.37;;
62798;SDS011;48842;51.046;13.796;2023-01-01T05:30:08;21.40;;;3.77;;
62798;SDS011;48842;51.046;13.796;2023-01-01T05:32:35;7.40;;;1.90;;
62798;SDS011;48842;51.046;13.796;2023-01-01T05:35:00;5.90;;;2.47;;
62798;SDS011;48842;51.046;13.796;2023-01-01T05:37:26;4.07;;;2.70;;
62798;SDS011;48842;51.046;13.796;2023-01-01T05:39:51;5.53;;;2.30;;
62798;SDS011;48842;51.046;13.796;2023-01-01T05:42:16;6.00;;;2.60;;
62798;SDS011;48842;51.046;13.796;2023-01-01T05:44:42;7.03;;;3.00;;
62798;SDS011;48842;51.046;13.796;2023-01-01T05:47:08;3.63;;;2.40;;
62798;SDS011;48842;51.046;13.796;2023-01-01T05:49:33;3.73;;;2.37;;
62798;SDS011;48842;51.046;13.796;2023-01-01T05:52:00;5.73;;;2.50;;
62798;SDS011;48842;51.046;13.796;2023-01-01T05:54:25;7.80;;;2.83;;
62798;SDS011;48842;51.046;13.796;2023-01-01T05:56:51;7.20;;;2.93;;
62798;SDS011;48842;51.046;13.796;2023-01-01T05:59:16;8.90;;;3.70;;
62798;SDS011;48842;51.046;13.796;2023-01-01T06:01:41;6.73;;;2.40;;
62798;SDS011;48842;51.046;13.796;2023-01-01T06:04:06;8.73;;;2.27;;
62798;SDS011;48842;51.046;13.796;2023-01-01T06:06:32;7.70;;;2.63;;
62798;SDS011;48842;51.046;13.796;2023-01-01T06:08:58;5.67;;;2.70;;
62798;SDS011;48842;51.046;13.796;2023-01-01T06:11:27;5.03;;;2.17;;
62798;SDS011;48842;51.046;13.796;2023-01-01T06:13:54;6.27;;;2.50;;
62798;SDS011;48842;51.046;13.796;2023-01-01T06:16:21;8.13;;;2.67;;
62798;SDS011;48842;51.046;13.796;2023-01-01T06:18:46;8.43;;;2.90;;
62798;SDS011;48842;51.046;13.796;2023-01-01T06:21:12;7.10;;;2.47;;
62798;SDS011;48842;51.046;13.796;2023-01-01T06:23:39;5.20;;;2.63;;
62798;SDS011;48842;51.046;13.796;2023-01-01T06:28:35;11.73;;;2.70;;
62798;SDS011;48842;51.046;13.796;2023-01-01T06:31:04;4.70;;;2.43;;
62798;SDS011;48842;51.046;13.796;2023-01-01T06:33:30;2.77;;;2.17;;
62798;SDS011;48842;51.046;13.796;2023-01-01T06:35:56;6.77;;;2.80;;
62798;SDS011;48842;51.046;13.796;2023-01-01T06:38:22;4.77;;;2.50;;
62798;SDS011;48842;51.046;13.796;2023-01-01T06:40:54;3.43;;;2.77;;
62798;SDS011;48842;51.046;13.796;2023-01-01T06:43:20;4.30;;;2.90;;
62798;SDS011;48842;51.046;13.796;2023-01-01T06:45:45;7.13;;;2.77;;
62798;SDS011;48842;51.046;13.796;2023-01-01T06:48:11;5.37;;;2.77;;
62798;SDS011;48842;51.046;13.796;2023-01-01T06:50:36;3.30;;;2.93;;
62798;SDS011;48842;51.046;13.796;2023-01-01T06:53:01;3.73;;;2.67;;
62798;SDS011;48842;51.046;13.796;2023-01-01T06:55:26;11.50;;;3.10;;
62798;SDS011;48842;51.046;13.796;2023-01-01T06:57:52;3.40;;;3.10;;
62798;SDS011;48842;51.046;13.796;2023-01-01T07:00:17;3.73;;;3.40;;
62798;SDS011;48842;51.046;13.796;2023-01-01T07:02:42;4.50;;;3.37;;
62798;SDS011;48842;51.046;13.796;2023-01-01T07:05:07;4.20;;;3.00;;
62798;SDS011;48842;51.046;13.796;2023-01-01T07:07:33;6.23;;;3.27;;
62798;SDS011;48842;51.046;13.796;2023-01-01T07:09:58;3.17;;;2.67;;
62798;SDS011;48842;51.046;13.796;2023-01-01T07:12:23;7.80;;;3.30;;
62798;SDS011;48842;51.046;13.796;2023-01-01T07:14:49;6.33;;;3.33;;
62798;SDS011;48842;51.046;13.796;2023-01-01T07:17:14;4.40;;;3.37;;
62798;SDS011;48842;51.046;13.796;2023-01-01T07:19:39;5.37;;;3.67;;
62798;SDS011;48842;51.046;13.796;2023-01-01T07:22:04;7.17;;;3.70;;
62798;SDS011;48842;51.046;13.796;2023-01-01T07:24:29;10.90;;;4.00;;
62798;SDS011;48842;51.046;13.796;2023-01-01T07:26:55;4.27;;;3.07;;
62798;SDS011;48842;51.046;13.796;2023-01-01T07:29:20;4.87;;;3.50;;
62798;SDS011;48842;51.046;13.796;2023-01-01T07:31:45;7.30;;;3.80;;
62798;SDS011;48842;51.046;13.796;2023-01-01T07:34:14;3.93;;;2.70;;
62798;SDS011;48842;51.046;13.796;2023-01-01T07:36:42;7.90;;;3.80;;
62798;SDS011;48842;51.046;13.796;2023-01-01T07:39:08;6.10;;;3.10;;
62798;SDS011;48842;51.046;13.796;2023-01-01T07:41:34;6.00;;;3.93;;
62798;SDS011;48842;51.046;13.796;2023-01-01T07:43:59;5.10;;;3.90;;
62798;SDS011;48842;51.046;13.796;2023-01-01T07:46:25;4.20;;;3.80;;
62798;SDS011;48842;51.046;13.796;2023-01-01T07:48:50;4.00;;;3.70;;
62798;SDS011;48842;51.046;13.796;2023-01-01T07:51:15;3.97;;;3.67;;
62798;SDS011;48842;51.046;13.796;2023-01-01T07:53:40;5.13;;;3.90;;
62798;SDS011;48842;51.046;13.796;2023-01-01T07:56:06;5.43;;;3.20;;
62798;SDS011;48842;51.046;13.796;2023-01-01T07:58:32;6.30;;;5.07;;
62798;SDS011;48842;51.046;13.796;2023-01-01T08:00:57;4.40;;;3.83;;
62798;SDS011;48842;51.046;13.796;2023-01-01T08:03:22;9.20;;;4.03;;
62798;SDS011;48842;51.046;13.796;2023-01-01T08:05:48;6.03;;;3.80;;
62798;SDS011;48842;51.046;13.796;2023-01-01T08:08:13;7.47;;;4.03;;
62798;SDS011;48842;51.046;13.796;2023-01-01T08:10:38;4.80;;;3.60;;
62798;SDS011;48842;51.046;13.796;2023-01-01T08:13:05;4.97;;;3.77;;
62798;SDS011;48842;51.046;13.796;2023-01-01T08:15:32;4.33;;;3.93;;
62798;SDS011;48842;51.046;13.796;2023-01-01T08:17:59;5.33;;;3.40;;
62798;SDS011;48842;51.046;13.796;2023-01-01T08:20:26;3.50;;;3.20;;
62798;SDS011;48842;51.046;13.796;2023-01-01T08:22:52;9.00;;;3.73;;
62798;SDS011;48842;51.046;13.796;2023-01-01T08:25:18;7.40;;;3.60;;
62798;SDS011;48842;51.046;13.796;2023-01-01T08:27:44;3.67;;;3.33;;
62798;SDS011;48842;51.046;13.796;2023-01-01T08:30:09;4.73;;;3.80;;
62798;SDS011;48842;51.046;13.796;2023-01-01T08:32:36;4.17;;;3.73;;
62798;SDS011;48842;51.046;13.796;2023-01-01T08:35:01;4.03;;;3.40;;
62798;SDS011;48842;51.046;13.796;2023-01-01T08:37:26;6.57;;;3.60;;
62798;SDS011;48842;51.046;13.796;2023-01-01T08:39:52;8.50;;;3.57;;
62798;SDS011;48842;51.046;13.796;2023-01-01T08:42:17;4.37;;;3.40;;
62798;SDS011;48842;51.046;13.796;2023-01-01T08:44:43;5.63;;;4.03;;
62798;SDS011;48842;51.046;13.796;2023-01-01T08:47:15;4.40;;;3.57;;
62798;SDS011;48842;51.046;13.796;2023-01-01T08:49:45;6.90;;;4.00;;
62798;SDS011;48842;51.046;13.796;2023-01-01T08:52:11;4.77;;;3.70;;
62798;SDS011;48842;51.046;13.796;2023-01-01T08:54:37;5.20;;;2.90;;
62798;SDS011;48842;51.046;13.796;2023-01-01T08:57:03;4.90;;;3.90;;
62798;SDS011;48842;51.046;13.796;2023-01-01T08:59:29;4.07;;;2.90;;
62798;SDS011;48842;51.046;13.796;2023-01-01T09:01:54;5.17;;;3.10;;
62798;SDS011;48842;51.046;13.796;2023-01-01T09:04:19;5.43;;;3.30;;
62798;SDS011;48842;51.046;13.796;2023-01-01T09:06:45;5.40;;;2.93;;
62798;SDS011;48842;51.046;13.796;2023-01-01T09:09:10;9.43;;;3.40;;
62798;SDS011;48842;51.046;13.796;2023-01-01T09:11:35;5.97;;;3.60;;
62798;SDS011;48842;51.046;13.796;2023-01-01T09:14:00;4.47;;;3.30;;
62798;SDS011;48842;51.046;13.796;2023-01-01T09:16:26;4.40;;;2.93;;
62798;SDS011;48842;51.046;13.796;2023-01-01T09:18:51;5.57;;;3.27;;
62798;SDS011;48842;51.046;13.796;2023-01-01T09:21:16;8.20;;;3.07;;
62798;SDS011;48842;51.046;13.796;2023-01-01T09:23:42;11.47;;;3.77;;
62798;SDS011;48842;51.046;13.796;2023-01-01T09:26:08;7.97;;;3.30;;
62798;SDS011;48842;51.046;13.796;2023-01-01T09:28:34;3.47;;;3.10;;
62798;SDS011;48842;51.046;13.796;2023-01-01T09:31:00;6.57;;;2.97;;
62798;SDS011;48842;51.046;13.796;2023-01-01T09:33:26;5.30;;;3.00;;
62798;SDS011;48842;51.046;13.796;2023-01-01T09:35:51;7.20;;;3.13;;
62798;SDS011;48842;51.046;13.796;2023-01-01T09:38:16;6.50;;;3.60;;
62798;SDS011;48842;51.046;13.796;2023-01-01T09:43:42;7.30;;;3.60;;
62798;SDS011;48842;51.046;13.796;2023-01-01T09:46:17;9.00;;;3.10;;
62798;SDS011;48842;51.046;13.796;2023-01-01T09:48:56;10.83;;;3.50;;
62798;SDS011;48842;51.046;13.796;2023-01-01T09:51:25;4.33;;;2.70;;
62798;SDS011;48842;51.046;13.796;2023-01-01T09:53:59;6.73;;;3.03;;
62798;SDS011;48842;51.046;13.796;2023-01-01T09:56:31;6.83;;;3.00;;
62798;SDS011;48842;51.046;13.796;2023-01-01T09:58:59;2.73;;;2.47;;
62798;SDS011;48842;51.046;13.796;2023-01-01T10:04:17;6.30;;;2.93;;
62798;SDS011;48842;51.046;13.796;2023-01-01T10:07:11;2.77;;;2.50;;
62798;SDS011;48842;51.046;13.796;2023-01-01T10:09:47;5.87;;;2.30;;
62798;SDS011;48842;51.046;13.796;2023-01-01T10:12:18;6.57;;;2.63;;
62798;SDS011;48842;51.046;13.796;2023-01-01T10:14:52;6.20;;;2.70;;
62798;SDS011;48842;51.046;13.796;2023-01-01T10:17:33;4.00;;;2.43;;
62798;SDS011;48842;51.046;13.796;2023-01-01T10:20:03;4.10;;;2.40;;
62798;SDS011;48842;51.046;13.796;2023-01-01T10:22:36;3.53;;;2.73;;
62798;SDS011;48842;51.046;13.796;2023-01-01T10:28:22;6.90;;;3.03;;
62798;SDS011;48842;51.046;13.796;2023-01-01T10:30:59;7.30;;;2.80;;
62798;SDS011;48842;51.046;13.796;2023-01-01T10:33:38;4.97;;;2.67;;
62798;SDS011;48842;51.046;13.796;2023-01-01T10:36:03;10.80;;;3.20;;
62798;SDS011;48842;51.046;13.796;2023-01-01T10:38:29;4.80;;;2.50;;
62798;SDS011;48842;51.046;13.796;2023-01-01T10:40:55;7.10;;;2.80;;
62798;SDS011;48842;51.046;13.796;2023-01-01T10:43:27;11.40;;;2.97;;
62798;SDS011;48842;51.046;13.796;2023-01-01T10:45:53;8.50;;;2.50;;
62798;SDS011;48842;51.046;13.796;2023-01-01T10:48:22;7.83;;;2.70;;
62798;SDS011;48842;51.046;13.796;2023-01-01T10:50:56;8.90;;;2.97;;
62798;SDS011;48842;51.046;13.796;2023-01-01T10:53:33;5.50;;;2.33;;
62798;SDS011;48842;51.046;13.796;2023-01-01T10:56:05;10.30;;;2.40;;
62798;SDS011;48842;51.046;13.796;2023-01-01T10:58:48;10.43;;;2.57;;
62798;SDS011;48842;51.046;13.796;2023-01-01T11:03:52;3.73;;;2.00;;
62798;SDS011;48842;51.046;13.796;2023-01-01T11:06:41;4.43;;;2.57;;
62798;SDS011;48842;51.046;13.796;2023-01-01T11:09:20;9.47;;;2.20;;
62798;SDS011;48842;51.046;13.796;2023-01-01T11:11:53;13.43;;;4.07;;
62798;SDS011;48842;51.046;13.796;2023-01-01T11:14:24;8.10;;;2.90;;
62798;SDS011;48842;51.046;13.796;2023-01-01T11:16:52;11.07;;;2.60;;
62798;SDS011;48842;51.046;13.796;2023-01-01T11:19:23;11.57;;;2.97;;
62798;SDS011;48842;51.046;13.796;2023-01-01T11:21:53;6.03;;;2.97;;
62798;SDS011;48842;51.046;13.796;2023-01-01T11:24:19;11.23;;;3.23;;
62798;SDS011;48842;51.046;13.796;2023-01-01T11:26:50;6.10;;;2.70;;
62798;SDS011;48842;51.046;13.796;2023-01-01T11:29:22;7.40;;;3.00;;
62798;SDS011;48842;51.046;13.796;2023-01-01T11:31:49;7.20;;;3.30;;
62798;SDS011;48842;51.046;13.796;2023-01-01T11:37:16;8.17;;;3.00;;
62798;SDS011;48842;51.046;13.796;2023-01-01T11:39:50;8.33;;;2.57;;
62798;SDS011;48842;51.046;13.796;2023-01-01T11:42:19;10.33;;;2.83;;
62798;SDS011;48842;51.046;13.796;2023-01-01T11:44:47;8.30;;;2.50;;
62798;SDS011;48842;51.046;13.796;2023-01-01T11:52:39;9.37;;;3.10;;
62798;SDS011;48842;51.046;13.796;2023-01-01T11:57:52;17.90;;;2.67;;
62798;SDS011;48842;51.046;13.796;2023-01-01T12:00:26;5.50;;;2.87;;
62798;SDS011;48842;51.046;13.796;2023-01-01T12:02:58;10.13;;;2.90;;
62798;SDS011;48842;51.046;13.796;2023-01-01T12:05:39;12.80;;;3.00;;
62798;SDS011;48842;51.046;13.796;2023-01-01T12:08:11;14.03;;;2.60;;
62798;SDS011;48842;51.046;13.796;2023-01-01T12:10:43;8.17;;;3.10;;
62798;SDS011;48842;51.046;13.796;2023-01-01T12:13:21;9.00;;;2.90;;
62798;SDS011;48842;51.046;13.796;2023-01-01T12:16:11;12.80;;;2.87;;
62798;SDS011;48842;51.046;13.796;2023-01-01T12:18:43;11.33;;;2.80;;
62798;SDS011;48842;51.046;13.796;2023-01-01T12:21:18;6.70;;;2.60;;
62798;SDS011;48842;51.046;13.796;2023-01-01T12:23:49;11.60;;;2.97;;
62798;SDS011;48842;51.046;13.796;2023-01-01T12:26:21;13.00;;;3.17;;
62798;SDS011;48842;51.046;13.796;2023-01-01T12:29:05;11.63;;;2.90;;
62798;SDS011;48842;51.046;13.796;2023-01-01T12:32:00;6.17;;;2.73;;
62798;SDS011;48842;51.046;13.796;2023-01-01T12:34:51;8.00;;;2.43;;
62798;SDS011;48842;51.046;13.796;2023-01-01T12:40:45;15.90;;;4.00;;
62798;SDS011;48842;51.046;13.796;2023-01-01T12:58:40;13.83;;;3.63;;
62798;SDS011;48842;51.046;13.796;2023-01-01T13:00:53;8.50;;;3.10;;
62798;SDS011;48842;51.046;13.796;2023-01-01T13:03:23;9.30;;;3.20;;
62798;SDS011;48842;51.046;13.796;2023-01-01T13:05:50;8.50;;;3.20;;
62798;SDS011;48842;51.046;13.796;2023-01-01T13:08:17;6.43;;;2.80;;
62798;SDS011;48842;51.046;13.796;2023-01-01T13:10:43;7.32;;;2.47;;
62798;SDS011;48842;51.046;13.796;2023-01-01T13:13:09;6.90;;;3.47;;
62798;SDS011;48842;51.046;13.796;2023-01-01T13:18:04;5.50;;;2.85;;
62798;SDS011;48842;51.046;13.796;2023-01-01T13:20:30;5.37;;;3.00;;
62798;SDS011;48842;51.046;13.796;2023-01-01T13:22:56;9.20;;;3.33;;
62798;SDS011;48842;51.046;13.796;2023-01-01T13:25:21;8.60;;;3.40;;
62798;SDS011;48842;51.046;13.796;2023-01-01T13:28:33;7.87;;;3.40;;
62798;SDS011;48842;51.046;13.796;2023-01-01T13:43:51;8.43;;;3.30;;
62798;SDS011;48842;51.046;13.796;2023-01-01T13:46:16;5.57;;;2.73;;
62798;SDS011;48842;51.046;13.796;2023-01-01T13:51:35;6.37;;;3.30;;
62798;SDS011;48842;51.046;13.796;2023-01-01T13:56:44;5.55;;;2.97;;
62798;SDS011;48842;51.046;13.796;2023-01-01T13:59:17;10.33;;;3.43;;
62798;SDS011;48842;51.046;13.796;2023-01-01T14:01:52;9.80;;;3.77;;
62798;SDS011;48842;51.046;13.796;2023-01-01T14:04:24;8.97;;;2.80;;
62798;SDS011;48842;51.046;13.796;2023-01-01T14:06:51;8.83;;;3.40;;
62798;SDS011;48842;51.046;13.796;2023-01-01T14:09:23;10.10;;;3.50;;
62798;SDS011;48842;51.046;13.796;2023-01-01T14:11:49;10.50;;;3.30;;
62798;SDS011;48842;51.046;13.796;2023-01-01T14:16:49;8.80;;;3.07;;
62798;SDS011;48842;51.046;13.796;2023-01-01T14:19:14;14.20;;;4.07;;
62798;SDS011;48842;51.046;13.796;2023-01-01T14:21:40;11.60;;;3.55;;
62798;SDS011;48842;51.046;13.796;2023-01-01T14:24:06;8.40;;;3.30;;
62798;SDS011;48842;51.046;13.796;2023-01-01T14:26:32;17.03;;;4.17;;
62798;SDS011;48842;51.046;13.796;2023-01-01T14:28:58;7.03;;;4.00;;
62798;SDS011;48842;51.046;13.796;2023-01-01T14:31:25;11.13;;;3.10;;
62798;SDS011;48842;51.046;13.796;2023-01-01T14:33:51;8.60;;;3.80;;
62798;SDS011;48842;51.046;13.796;2023-01-01T14:36:24;8.30;;;2.95;;
62798;SDS011;48842;51.046;13.796;2023-01-01T14:38:50;9.60;;;3.00;;
62798;SDS011;48842;51.046;13.796;2023-01-01T14:41:35;7.83;;;3.20;;
62798;SDS011;48842;51.046;13.796;2023-01-01T14:44:14;8.10;;;3.73;;
62798;SDS011;48842;51.046;13.796;2023-01-01T14:46:40;18.60;;;3.10;;
62798;SDS011;48842;51.046;13.796;2023-01-01T14:49:07;10.73;;;2.60;;
62798;SDS011;48842;51.046;13.796;2023-01-01T14:51:32;6.60;;;3.13;;
62798;SDS011;48842;51.046;13.796;2023-01-01T14:53:58;12.50;;;4.30;;
62798;SDS011;48842;51.046;13.796;2023-01-01T14:56:26;7.73;;;3.70;;
62798;SDS011;48842;51.046;13.796;2023-01-01T14:58:52;12.73;;;4.70;;
62798;SDS011;48842;51.046;13.796;2023-01-01T15:01:22;13.20;;;6.37;;
62798;SDS011;48842;51.046;13.796;2023-01-01T15:06:22;10.23;;;4.27;;
62798;SDS011;48842;51.046;13.796;2023-01-01T15:08:47;10.13;;;2.90;;
62798;SDS011;48842;51.046;13.796;2023-01-01T15:11:13;7.93;;;3.30;;
62798;SDS011;48842;51.046;13.796;2023-01-01T15:13:38;15.90;;;3.20;;
62798;SDS011;48842;51.046;13.796;2023-01-01T15:16:16;7.68;;;3.58;;
62798;SDS011;48842;51.046;13.796;2023-01-01T15:23:38;9.57;;;3.30;;
62798;SDS011;48842;51.046;13.796;2023-01-01T15:26:07;8.33;;;3.40;;
62798;SDS011;48842;51.046;13.796;2023-01-01T15:28:32;12.17;;;3.70;;
62798;SDS011;48842;51.046;13.796;2023-01-01T15:30:58;12.52;;;4.43;;
62798;SDS011;48842;51.046;13.796;2023-01-01T15:33:23;14.30;;;4.20;;
62798;SDS011;48842;51.046;13.796;2023-01-01T15:35:49;14.07;;;4.83;;
62798;SDS011;48842;51.046;13.796;2023-01-01T15:38:24;5.87;;;3.90;;
62798;SDS011;48842;51.046;13.796;2023-01-01T15:40:50;15.73;;;4.23;;
62798;SDS011;48842;51.046;13.796;2023-01-01T15:43:19;10.47;;;4.67;;
62798;SDS011;48842;51.046;13.796;2023-01-01T15:48:26;5.27;;;3.33;;
62798;SDS011;48842;51.046;13.796;2023-01-01T15:53:24;15.55;;;3.75;;
62798;SDS011;48842;51.046;13.796;2023-01-01T15:58:23;8.47;;;3.80;;
62798;SDS011;48842;51.046;13.796;2023-01-01T16:00:56;22.70;;;9.07;;
62798;SDS011;48842;51.046;13.796;2023-01-01T16:03:22;11.67;;;5.60;;
62798;SDS011;48842;51.046;13.796;2023-01-01T16:05:49;19.57;;;5.30;;
62798;SDS011;48842;51.046;13.796;2023-01-01T16:08:15;11.80;;;4.00;;
62798;SDS011;48842;51.046;13.796;2023-01-01T16:10:41;8.43;;;5.53;;
62798;SDS011;48842;51.046;13.796;2023-01-01T16:13:06;15.00;;;4.50;;
62798;SDS011;48842;51.046;13.796;2023-01-01T16:15:31;20.25;;;4.15;;
62798;SDS011;48842;51.046;13.796;2023-01-01T16:17:57;13.10;;;4.30;;
62798;SDS011;48842;51.046;13.796;2023-01-01T16:20:22;8.35;;;4.43;;
62798;SDS011;48842;51.046;13.796;2023-01-01T16:22:47;10.53;;;4.90;;
62798;SDS011;48842;51.046;13.796;2023-01-01T16:27:37;4.80;;;3.87;;